Terminal Aerodrome Forecast
Issued by NWS

Home | Current Version | Previous Version | Text Only | Print | Product List | Glossary On
Versions: 1 2 3 4 5 6 7 8 9 10 11
015
FTUS42 KMLB 300520
TAFSFB
TAF
KSFB 300520Z 3006/3106 16004KT P6SM FEW060 FEW090
     FM301500 17008KT P6SM SCT050
     FM310000 16007KT P6SM SCT050 SCT100=

USA.gov is the U.S. government's official web portal to all federal, state and local government web resources and services.